Nearby METAR Reports

 

KUCP - New Castle Muni, Pennsylvania, USA
Distance from station: ENE 8mi, 13km
Updated: Tue, 14-Jul-2020 12:56pm EDT
Few Clouds
Few Clouds
 Wind from varies
Wind: varies 6 mph , 9 km/h
Temperature: 75°F , 24°C
Dew Point: 61°F , 16°C
Humidity: 61%
Barometer: 30.11 inHg , 1019.6 hPa
Clouds: Few Clouds
Visibility: 10 miles , 16 km
Cloud details: Few Clouds 3600 ft
2020/07/14 16:56 KUCP 141656Z AUTO VRB05KT 10SM FEW036 24/16 A3011 RMK AO2 SLP206 T02440156
KBVI - Beaver Falls Arp, Pennsylvania, USA
Distance from station: SSE 16mi, 26km
Updated: Tue, 14-Jul-2020 1:35pm EDT
Mostly cloudy
Mostly cloudy
 Wind from WNW
Wind: WNW 3 mph , 6 km/h
Temperature: 77°F , 25°C
Dew Point: 57°F , 14°C
Humidity: 51%
Barometer: 30.10 inHg , 1019.3 hPa
Clouds: Mostly cloudy
Visibility: 10 miles , 16 km
Cloud details: Partly cloudy 4400 ft
Mostly cloudy 4900 ft
Mostly cloudy 6000 ft
2020/07/14 17:35 KBVI 141735Z AUTO 29003KT 10SM SCT044 BKN049 BKN060 25/14 A3010 RMK AO2 T02540142
 
KYNG - Youngstown, Ohio, USA
Distance from station: NNW 20mi, 33km
Updated: Tue, 14-Jul-2020 12:51pm EDT
Mostly cloudy
Mostly cloudy
 Wind from WNW
Wind: WNW 6 mph , 9 km/h
Temperature: 75°F , 24°C
Dew Point: 61°F , 16°C
Humidity: 61%
Barometer: 30.10 inHg , 1019.3 hPa
Clouds: Mostly cloudy
Visibility: 10 miles , 16 km
Cloud details: Mostly cloudy 3700 ft
2020/07/14 16:51 KYNG 141651Z 30005KT 10SM BKN037 24/16 A3010 RMK AO2 SLP187 T02440156
KBTP - Butler Co., Pennsylvania, USA
Distance from station: ESE 34mi, 55km
Updated: Tue, 14-Jul-2020 12:56pm EDT
Mostly cloudy
Mostly cloudy
 Wind from varies
Wind: varies 7 mph , 11 km/h
Temperature: 75°F , 24°C
Dew Point: 57°F , 14°C
Humidity: 54%
Barometer: 30.11 inHg , 1019.6 hPa
Clouds: Mostly cloudy
Visibility: 10 miles , 16 km
Cloud details: Few Clouds 3900 ft
Mostly cloudy 5500 ft
2020/07/14 16:56 KBTP 141656Z AUTO VRB06KT 10SM FEW039 BKN055 24/14 A3011 RMK AO2 SLP194 T02440144
 
KPIT - Pittsburgh, Pennsylvania, USA
Distance from station: SSE 36mi, 57km
Updated: Tue, 14-Jul-2020 12:51pm EDT
Partly cloudy
Partly cloudy
 Wind from varies
Wind: varies 6 mph , 9 km/h
Temperature: 79°F , 26°C
Dew Point: 55°F , 13°C
Humidity: 45%
Barometer: 30.09 inHg , 1019 hPa
Clouds: Partly cloudy
Visibility: 10 miles , 16 km
Cloud details: Partly cloudy 4200 ft
2020/07/14 16:51 KPIT 141651Z VRB05KT 10SM SCT042 26/13 A3009 RMK AO2 SLP190 T02610128
KPOV - Ravena/Portage, Ohio, USA
Distance from station: WNW 40mi, 65km
Updated: Tue, 14-Jul-2020 1:21pm EDT
Mostly cloudy
Mostly cloudy
 Wind from calm
Wind: Calm
Temperature: 77°F , 25°C
Dew Point: 55°F , 13°C
Humidity: 47%
Barometer: 30.11 inHg , 1019.6 hPa
Clouds: Mostly cloudy
Visibility: 10 miles , 16 km
Cloud details: Partly cloudy 4400 ft
Mostly cloudy 5000 ft
2020/07/14 17:21 KPOV 141721Z AUTO 00000KT 10SM SCT044 BKN050 25/13 A3011 RMK AO2 T02460131 PWINO
 
KFKL - Franklin, Pennsylvania, USA
Distance from station: NE 45mi, 72km
Updated: Tue, 14-Jul-2020 12:56pm EDT
Mostly cloudy
Mostly cloudy
 Wind from WNW
Wind: WNW 8 mph , 13 km/h
Temperature: 75°F , 24°C
Dew Point: 57°F , 14°C
Humidity: 54%
Barometer: 30.11 inHg , 1019.6 hPa
Clouds: Mostly cloudy
Visibility: 10 miles , 16 km
Cloud details: Mostly cloudy 4200 ft
2020/07/14 16:56 KFKL 141656Z AUTO 30007KT 10SM BKN042 24/14 A3011 RMK AO2 SLP192 T02390144
KCAK - Akron, Ohio, USA
Distance from station: W 47mi, 76km
Updated: Tue, 14-Jul-2020 12:51pm EDT
Partly cloudy
Partly cloudy
 Wind from NE
Wind: NE 7 mph , 11 km/h
Temperature: 81°F , 27°C
Heat Index: 81°F , 27°C
Dew Point: 55°F , 13°C
Humidity: 42%
Barometer: 30.10 inHg , 1019.3 hPa
Clouds: Partly cloudy
Visibility: 10 miles , 16 km
Cloud details: Partly cloudy 4800 ft
2020/07/14 16:51 KCAK 141651Z 04006KT 10SM SCT048 27/13 A3010 RMK AO2 SLP185 T02720128
 
KAKR - Akron (fulton), Ohio, USA
Distance from station: W 48mi, 77km
Updated: Tue, 14-Jul-2020 12:54pm EDT
Mostly cloudy
Mostly cloudy
 Wind from NNW
Wind: NNW 7 mph , 11 km/h
Temperature: 82°F , 28°C
Heat Index: 82°F , 28°C
Dew Point: 57°F , 14°C
Humidity: 42%
Barometer: 30.09 inHg , 1019 hPa
Clouds: Mostly cloudy
Visibility: 10 miles , 16 km
Cloud details: Mostly cloudy 5500 ft
2020/07/14 16:54 KAKR 141654Z AUTO 34006KT 10SM BKN055 28/14 A3009 RMK AO2 SLP182 T02830139
KGKJ - Meadville, Pennsylvania, USA
Distance from station: NNE 49mi, 79km
Updated: Tue, 14-Jul-2020 12:53pm EDT
Few Clouds
Few Clouds
 Wind from W
Wind: W 10 mph , 17 km/h
Temperature: 75°F , 24°C
Dew Point: 55°F , 13°C
Humidity: 50%
Barometer: 30.11 inHg , 1019.6 hPa
Clouds: Few Clouds
Visibility: 10 miles , 16 km
Cloud details: Few Clouds 4100 ft
2020/07/14 16:53 KGKJ 141653Z AUTO 28009KT 10SM FEW041 24/13 A3011 RMK AO2 SLP189 T02390128